Time;durP1;ratioP1;P1;durP2;ratioP2;P2;SDS_P1;SDS_P2;PMS_P1;PMS_P2;Temp;Humidity;BMP_temperature;BMP_pressure;BME280_temperature;BME280_humidity;BME280_pressure;Samples;Min_cycle;Max_cycle;Signal;HPM_P1;HPM_P2
2022/06/16 00:02:03;;;;;;;4.50;3.05;;;22.80;99.90;;;;;;5053434;28;20056;-79
2022/06/16 00:04:30;;;;;;;4.07;2.47;;;22.80;99.90;;;;;;5072147;28;20410;-78
2022/06/16 00:06:59;;;;;;;5.47;2.13;;;22.80;99.90;;;;;;5069762;28;20109;-79
2022/06/16 00:09:26;;;;;;;5.05;2.30;;;22.80;99.90;;;;;;5072412;28;20048;-79
2022/06/16 00:11:54;;;;;;;5.40;2.17;;;22.70;99.90;;;;;;5069478;28;20041;-80
2022/06/16 00:14:23;;;;;;;5.13;2.22;;;22.70;99.90;;;;;;5071462;28;20422;-80
2022/06/16 00:16:49;;;;;;;3.80;2.10;;;22.70;99.90;;;;;;5070393;28;20044;-79
2022/06/16 00:19:16;;;;;;;4.75;2.58;;;22.70;99.90;;;;;;5069875;28;20417;-77
2022/06/16 00:21:43;;;;;;;3.92;2.15;;;22.60;99.90;;;;;;5071081;28;20060;-80
2022/06/16 00:24:10;;;;;;;6.88;2.30;;;22.60;99.90;;;;;;5069740;28;20051;-78
2022/06/16 00:26:37;;;;;;;7.03;2.83;;;22.60;99.90;;;;;;5072267;28;20108;-77
2022/06/16 00:29:04;;;;;;;6.85;2.65;;;22.60;99.90;;;;;;5069229;28;20453;-79
2022/06/16 00:31:36;;;;;;;5.85;2.10;;;22.60;99.90;;;;;;5067611;28;20051;-78
2022/06/16 00:34:03;;;;;;;8.45;1.90;;;22.50;99.90;;;;;;5071528;28;20052;-79
2022/06/16 00:36:29;;;;;;;4.80;2.65;;;22.30;99.90;;;;;;5069952;28;20044;-78
2022/06/16 00:38:56;;;;;;;3.30;2.03;;;22.30;99.90;;;;;;5069108;28;20044;-80
2022/06/16 00:41:23;;;;;;;4.28;2.58;;;22.30;99.90;;;;;;5052183;28;20422;-78
2022/06/16 00:43:49;;;;;;;6.70;3.00;;;22.40;99.90;;;;;;5070110;28;20049;-77
2022/06/16 00:46:19;;;;;;;4.07;2.55;;;22.40;99.90;;;;;;5054034;28;20383;-78
2022/06/16 00:48:51;;;;;;;3.80;2.23;;;22.40;99.90;;;;;;5069164;28;20049;-78
2022/06/16 00:51:27;;;;;;;3.47;2.47;;;22.40;99.90;;;;;;5065939;28;20049;-78
2022/06/16 00:53:58;;;;;;;3.38;2.17;;;22.40;99.90;;;;;;5070294;28;20052;-80
2022/06/16 00:56:25;;;;;;;9.95;2.75;;;22.30;99.90;;;;;;5071955;28;20055;-78
2022/06/16 00:58:57;;;;;;;4.28;2.63;;;22.20;99.90;;;;;;5068788;28;20080;-80
2022/06/16 01:01:25;;;;;;;6.20;2.60;;;22.30;99.90;;;;;;5066330;28;20136;-79
2022/06/16 01:06:38;;;;;;;3.30;2.17;;;22.20;99.90;;;;;;5064662;28;20051;-79
2022/06/16 01:09:11;;;;;;;4.75;2.08;;;22.30;99.90;;;;;;5071719;28;20079;-79
2022/06/16 01:14:44;;;;;;;4.72;2.13;;;22.40;99.90;;;;;;5068810;28;20045;-78
2022/06/16 01:17:29;;;;;;;5.60;2.60;;;22.40;99.90;;;;;;5047217;28;20045;-79
2022/06/16 01:20:06;;;;;;;3.67;2.75;;;22.30;99.90;;;;;;5051403;28;20049;-79
2022/06/16 01:23:06;;;;;;;9.13;2.95;;;22.30;99.90;;;;;;5065578;28;20049;-77
2022/06/16 01:25:54;;;;;;;4.87;2.57;;;22.30;99.90;;;;;;5067365;28;20107;-80
2022/06/16 01:28:31;;;;;;;25.85;3.40;;;22.30;99.90;;;;;;5067157;28;20278;-78
2022/06/16 01:31:01;;;;;;;6.95;2.63;;;22.30;99.90;;;;;;5069942;28;20051;-78
2022/06/16 01:33:40;;;;;;;5.10;2.40;;;22.30;99.90;;;;;;5072637;28;20048;-79
2022/06/16 01:36:39;;;;;;;6.75;2.42;;;22.30;99.90;;;;;;5068230;28;20081;-78
2022/06/16 01:39:24;;;;;;;4.93;2.70;;;22.30;99.90;;;;;;5069749;28;20056;-79
2022/06/16 01:42:23;;;;;;;4.70;2.22;;;22.30;99.90;;;;;;5049367;28;20120;-78
2022/06/16 01:45:09;;;;;;;3.92;2.25;;;22.40;99.90;;;;;;5069949;28;20045;-78
2022/06/16 01:47:40;;;;;;;5.47;2.92;;;22.40;99.90;;;;;;5071157;28;20108;-79
2022/06/16 01:50:14;;;;;;;8.32;2.67;;;22.40;99.90;;;;;;5073417;28;20041;-79
2022/06/16 01:52:55;;;;;;;4.25;2.55;;;22.30;99.90;;;;;;5075775;28;20051;-79
2022/06/16 01:55:30;;;;;;;5.18;2.75;;;22.20;99.90;;;;;;5071954;28;20136;-80
2022/06/16 01:58:00;;;;;;;6.88;2.45;;;22.20;99.90;;;;;;5071999;28;20059;-78
2022/06/16 02:00:27;;;;;;;;;;;22.20;99.90;;;;;;5068759;28;20049;-80
2022/06/16 02:03:19;;;;;;;7.32;2.83;;;22.20;99.90;;;;;;5075190;28;19943;-79
2022/06/16 02:06:01;;;;;;;4.78;2.40;;;22.20;99.90;;;;;;5068579;28;20108;-79
2022/06/16 02:08:34;;;;;;;6.40;2.70;;;22.20;99.90;;;;;;5071239;28;20048;-78
2022/06/16 02:11:09;;;;;;;4.25;2.53;;;22.20;99.90;;;;;;5067782;28;20132;-79
2022/06/16 02:13:43;;;;;;;4.65;2.58;;;22.20;99.90;;;;;;5073931;28;20058;-78
2022/06/16 02:16:13;;;;;;;5.53;2.60;;;22.20;99.90;;;;;;5075699;28;20051;-79
2022/06/16 02:18:42;;;;;;;4.50;2.28;;;22.20;99.90;;;;;;5066924;28;20480;-79
2022/06/16 02:21:36;;;;;;;5.13;2.78;;;22.20;99.90;;;;;;5074674;28;20190;-80
2022/06/16 02:24:05;;;;;;;6.63;2.38;;;22.20;99.90;;;;;;5063231;28;20088;-78
2022/06/16 02:26:33;;;;;;;5.30;2.85;;;22.20;99.90;;;;;;5064893;28;20040;-80
2022/06/16 02:29:03;;;;;;;7.72;2.97;;;22.20;99.90;;;;;;5064654;28;20396;-77
2022/06/16 02:31:43;;;;;;;5.72;2.42;;;22.20;99.90;;;;;;5064117;28;20417;-77
2022/06/16 02:34:19;;;;;;;5.75;2.90;;;22.10;99.90;;;;;;5060833;28;20081;-79
2022/06/16 02:37:09;;;;;;;4.22;2.70;;;22.00;99.90;;;;;;5064118;28;20060;-79
2022/06/16 02:40:00;;;;;;;7.72;2.47;;;22.00;99.90;;;;;;5063205;28;20446;-77
2022/06/16 02:42:48;;;;;;;3.97;2.67;;;21.90;99.90;;;;;;5062659;28;20053;-77
2022/06/16 02:45:18;;;;;;;8.25;2.67;;;22.00;99.90;;;;;;5061269;28;20044;-78
2022/06/16 02:47:54;;;;;;;3.80;2.53;;;21.90;99.90;;;;;;5064094;28;20083;-79
2022/06/16 02:50:45;;;;;;;4.70;3.08;;;21.80;99.90;;;;;;5065895;28;20508;-78
2022/06/16 02:53:22;;;;;;;7.15;2.80;;;21.80;99.90;;;;;;5065379;28;20080;-79
2022/06/16 02:55:57;;;;;;;6.25;2.88;;;21.80;99.90;;;;;;5060222;28;20052;-78
2022/06/16 02:58:24;;;;;;;5.68;2.40;;;21.80;99.90;;;;;;5063085;28;20045;-80
2022/06/16 03:00:54;;;;;;;3.03;2.10;;;21.80;99.90;;;;;;5065462;28;20136;-79
2022/06/16 03:03:31;;;;;;;5.88;2.60;;;21.80;99.90;;;;;;5058555;28;20132;-79
2022/06/16 03:05:58;;;;;;;8.05;2.55;;;21.80;99.90;;;;;;5064527;28;20116;-78
2022/06/16 03:08:28;;;;;;;4.90;2.58;;;21.80;99.90;;;;;;5064092;28;20048;-77
2022/06/16 03:10:58;;;;;;;5.22;2.67;;;21.80;99.90;;;;;;5063046;28;20049;-78
2022/06/16 03:13:26;;;;;;;;;;;21.80;99.90;;;;;;5066327;28;20044;-78
2022/06/16 03:15:56;;;;;;;23.98;3.05;;;21.80;99.90;;;;;;5062502;28;19920;-79
2022/06/16 03:18:23;;;;;;;7.80;2.63;;;21.80;99.90;;;;;;5064350;28;20525;-80
2022/06/16 03:20:52;;;;;;;8.73;2.88;;;21.70;99.90;;;;;;5063594;28;20075;-78
2022/06/16 03:23:19;;;;;;;3.88;2.95;;;21.70;99.90;;;;;;5063557;28;20123;-79
2022/06/16 03:25:46;;;;;;;8.07;2.92;;;21.70;99.90;;;;;;5046494;28;20048;-78
2022/06/16 03:28:13;;;;;;;8.80;2.72;;;21.70;99.90;;;;;;5062349;28;20525;-80
2022/06/16 03:30:41;;;;;;;5.15;3.05;;;21.70;99.90;;;;;;5047276;28;20051;-79
2022/06/16 03:33:10;;;;;;;4.03;2.80;;;21.70;99.90;;;;;;5058154;28;20049;-78
2022/06/16 03:35:37;;;;;;;5.18;2.75;;;21.60;99.90;;;;;;5064833;28;20044;-78
2022/06/16 03:38:08;;;;;;;3.85;2.60;;;21.70;99.90;;;;;;5062749;28;20049;-80
2022/06/16 03:40:35;;;;;;;8.50;3.55;;;21.70;99.90;;;;;;5062959;28;20154;-78
2022/06/16 03:43:01;;;;;;;5.32;2.85;;;21.70;99.90;;;;;;5063830;28;20091;-79
2022/06/16 03:45:28;;;;;;;5.68;3.00;;;21.60;99.90;;;;;;5062501;28;20049;-79
2022/06/16 03:47:55;;;;;;;6.15;2.53;;;21.70;99.90;;;;;;5064777;28;20082;-78
2022/06/16 03:50:22;;;;;;;7.72;3.13;;;21.70;99.90;;;;;;5061554;28;20422;-78
2022/06/16 03:52:48;;;;;;;5.22;2.80;;;21.80;99.90;;;;;;5047199;28;20056;-80
2022/06/16 03:55:15;;;;;;;4.78;2.85;;;21.80;99.90;;;;;;5061385;28;20095;-79
2022/06/16 03:57:42;;;;;;;4.03;2.63;;;21.80;99.90;;;;;;5064525;28;20052;-79
2022/06/16 04:00:09;;;;;;;4.15;2.65;;;21.80;99.90;;;;;;5062520;28;20158;-80
2022/06/16 04:02:36;;;;;;;7.85;2.47;;;21.70;99.90;;;;;;5063602;28;20048;-79
2022/06/16 04:05:06;;;;;;;5.60;3.15;;;21.70;99.90;;;;;;5063042;28;20045;-79
2022/06/16 04:07:37;;;;;;;4.25;2.45;;;21.80;99.90;;;;;;5061910;28;20118;-79
2022/06/16 04:10:04;;;;;;;;;;;21.80;99.90;;;;;;5043324;28;20132;-79
2022/06/16 04:12:31;;;;;;;5.95;2.58;;;21.80;99.90;;;;;;5057058;28;19921;-78
2022/06/16 04:14:58;;;;;;;5.10;2.65;;;21.90;99.90;;;;;;5064258;28;20088;-80
2022/06/16 04:17:25;;;;;;;5.55;3.20;;;21.90;99.90;;;;;;5062044;28;20044;-80
2022/06/16 04:22:37;;;;;;;3.28;2.92;;;22.10;99.90;;;;;;5064728;28;20502;-78
2022/06/16 04:25:05;;;;;;;5.15;2.75;;;22.10;99.90;;;;;;5068989;28;20516;-78
2022/06/16 04:27:32;;;;;;;5.47;2.90;;;22.20;99.90;;;;;;5063921;28;20048;-79
2022/06/16 04:29:59;;;;;;;4.35;2.80;;;22.30;99.90;;;;;;5064384;28;20549;-78
2022/06/16 04:32:26;;;;;;;6.72;3.53;;;22.40;99.90;;;;;;5064493;28;20047;-78
2022/06/16 04:34:52;;;;;;;5.07;2.90;;;22.40;99.90;;;;;;5064339;28;20048;-79
2022/06/16 04:37:19;;;;;;;8.40;2.83;;;22.50;99.90;;;;;;5064549;28;20419;-78
2022/06/16 04:39:46;;;;;;;7.93;2.70;;;22.60;99.90;;;;;;5062693;28;20467;-77
2022/06/16 04:42:12;;;;;;;6.65;2.70;;;22.70;99.90;;;;;;5064876;28;20055;-79
2022/06/16 04:44:40;;;;;;;10.95;2.85;;;22.80;99.90;;;;;;5062977;28;20049;-78
2022/06/16 04:47:08;;;;;;;6.05;2.63;;;22.90;99.90;;;;;;5057594;28;20131;-78
2022/06/16 04:49:35;;;;;;;7.68;2.67;;;23.00;99.90;;;;;;5064781;28;20525;-77
2022/06/16 04:52:02;;;;;;;10.82;2.60;;;23.10;99.90;;;;;;5063425;28;20048;-77
2022/06/16 04:54:28;;;;;;;7.43;3.22;;;23.20;99.90;;;;;;5062385;28;20045;-77
2022/06/16 04:56:55;;;;;;;8.57;3.05;;;23.30;99.90;;;;;;5066020;28;20421;-79
2022/06/16 04:59:22;;;;;;;9.80;3.10;;;23.50;99.90;;;;;;5065081;28;20049;-81
2022/06/16 05:01:49;;;;;;;10.88;3.03;;;23.60;99.90;;;;;;5067864;28;20055;-82
2022/06/16 05:04:16;;;;;;;10.00;3.40;;;23.70;99.90;;;;;;5065685;28;20067;-81
2022/06/16 05:06:42;;;;;;;10.13;3.15;;;23.80;99.90;;;;;;5071709;28;20044;-82
2022/06/16 05:09:10;;;;;;;8.75;2.72;;;23.90;99.90;;;;;;5074460;28;20440;-81
2022/06/16 05:11:36;;;;;;;12.50;3.55;;;24.00;99.90;;;;;;5067452;28;20338;-81
2022/06/16 05:14:03;;;;;;;6.20;3.13;;;24.10;99.90;;;;;;5074988;28;20058;-80
2022/06/16 05:16:30;;;;;;;10.90;3.00;;;24.20;99.90;;;;;;5071843;28;20049;-81
2022/06/16 05:18:57;;;;;;;7.50;2.72;;;24.30;99.90;;;;;;5074355;28;20045;-81
2022/06/16 05:21:23;;;;;;;8.50;3.60;;;24.40;99.90;;;;;;5054535;28;20056;-82
2022/06/16 05:23:50;;;;;;;4.90;3.00;;;24.40;99.90;;;;;;5072839;28;20044;-81
2022/06/16 05:26:17;;;;;;;13.80;3.70;;;24.50;99.90;;;;;;5073335;28;20076;-81
2022/06/16 05:28:44;;;;;;;10.02;2.97;;;24.50;99.90;;;;;;5071470;28;20615;-80
2022/06/16 05:31:10;;;;;;;8.15;2.90;;;24.60;99.90;;;;;;5073899;28;20040;-80
2022/06/16 05:33:37;;;;;;;11.45;3.17;;;24.70;99.90;;;;;;5072327;28;20083;-80
2022/06/16 05:36:07;;;;;;;7.13;3.15;;;24.70;99.90;;;;;;5067729;28;20068;-80
2022/06/16 05:38:34;;;;;;;9.68;3.97;;;24.80;99.90;;;;;;5059339;28;20052;-77
2022/06/16 05:41:08;;;;;;;10.57;3.15;;;24.80;99.90;;;;;;5071941;28;20106;-77
2022/06/16 05:43:35;;;;;;;8.73;3.28;;;24.90;99.90;;;;;;5069221;28;20124;-78
2022/06/16 05:46:04;;;;;;;7.13;3.35;;;24.90;99.90;;;;;;5071957;28;20498;-79
2022/06/16 05:48:32;;;;;;;9.80;3.47;;;24.90;99.90;;;;;;5070412;28;20052;-80
2022/06/16 05:51:07;;;;;;;8.48;3.05;;;24.90;99.90;;;;;;5074027;28;20041;-80
2022/06/16 05:53:34;;;;;;;6.43;3.13;;;24.90;99.90;;;;;;5068207;28;20045;-78
2022/06/16 05:56:01;;;;;;;10.63;3.17;;;24.90;99.90;;;;;;5071900;28;20044;-80
2022/06/16 05:58:28;;;;;;;8.20;3.47;;;24.90;99.90;;;;;;5071836;28;20045;-80
2022/06/16 06:00:55;;;;;;;13.82;3.42;;;24.80;99.90;;;;;;5072136;28;20052;-79
2022/06/16 06:03:22;;;;;;;8.07;3.20;;;24.80;99.90;;;;;;5074911;28;20048;-80
2022/06/16 06:05:48;;;;;;;6.03;2.95;;;24.80;99.90;;;;;;5072440;28;20172;-80
2022/06/16 06:16:37;;;;;;;8.45;3.42;;;25.00;99.90;;;;;;5068656;28;20057;-79
2022/06/16 06:19:26;;;;;;;10.93;3.22;;;25.00;99.90;;;;;;5072383;28;20106;-80
2022/06/16 06:21:58;;;;;;;10.43;2.92;;;25.00;99.90;;;;;;5068099;28;20056;-80
2022/06/16 06:24:27;;;;;;;6.53;3.42;;;25.00;99.90;;;;;;5071479;28;20052;-80
2022/06/16 06:26:56;;;;;;;8.27;3.35;;;25.00;99.90;;;;;;5055329;28;20051;-79
2022/06/16 06:29:23;;;;;;;11.17;3.80;;;25.00;99.90;;;;;;5069531;28;20045;-80
2022/06/16 06:31:50;;;;;;;10.40;3.40;;;25.00;99.90;;;;;;5072248;28;20060;-80
2022/06/16 06:34:17;;;;;;;10.30;3.15;;;25.00;99.90;;;;;;5077735;28;20051;-81
2022/06/16 06:36:43;;;;;;;11.30;3.35;;;24.90;99.90;;;;;;5074757;28;20104;-80
2022/06/16 06:39:12;;;;;;;8.75;3.40;;;24.90;99.90;;;;;;5076565;28;20533;-80
2022/06/16 06:41:39;;;;;;;8.57;3.13;;;24.90;99.90;;;;;;5084791;28;20074;-78
2022/06/16 06:44:06;;;;;;;10.10;3.72;;;24.90;99.90;;;;;;5084777;28;20033;-83
2022/06/16 06:46:33;;;;;;;7.45;2.88;;;24.80;99.90;;;;;;5073873;28;20039;-82
2022/06/16 06:49:02;;;;;;;10.98;3.33;;;24.80;99.90;;;;;;5088790;28;20033;-82
2022/06/16 06:51:31;;;;;;;9.48;3.42;;;24.80;99.90;;;;;;5091769;28;20040;-82
2022/06/16 06:53:58;;;;;;;11.25;3.78;;;24.90;99.90;;;;;;5080475;28;20052;-81
2022/06/16 06:56:26;;;;;;;13.68;4.82;;;24.90;99.90;;;;;;5090530;28;20108;-81
2022/06/16 06:58:54;;;;;;;14.82;3.67;;;24.90;99.90;;;;;;5083125;28;20035;-79
2022/06/16 07:01:21;;;;;;;8.55;3.60;;;24.90;99.90;;;;;;5090865;28;20051;-81
2022/06/16 07:03:49;;;;;;;9.90;3.63;;;24.90;99.90;;;;;;5087963;28;20029;-82
2022/06/16 07:06:18;;;;;;;9.45;4.43;;;25.00;99.90;;;;;;5066376;28;20048;-81
2022/06/16 07:08:46;;;;;;;11.50;3.92;;;24.90;99.90;;;;;;5072426;28;20137;-80
2022/06/16 07:11:14;;;;;;;14.00;3.30;;;24.90;99.90;;;;;;5068326;28;20475;-79
2022/06/16 07:13:41;;;;;;;9.52;3.78;;;25.00;99.90;;;;;;5075918;28;20044;-79
2022/06/16 07:16:09;;;;;;;10.02;3.63;;;25.00;99.90;;;;;;5073672;28;20045;-80
2022/06/16 07:18:37;;;;;;;11.90;3.88;;;25.00;99.90;;;;;;5074252;28;20124;-79
2022/06/16 07:21:04;;;;;;;10.77;3.92;;;25.00;99.90;;;;;;5075697;28;20048;-80
2022/06/16 07:23:31;;;;;;;8.93;4.07;;;25.00;99.90;;;;;;5074040;28;20084;-80
2022/06/16 07:25:58;;;;;;;13.80;3.67;;;25.10;99.90;;;;;;5072442;28;20092;-79
2022/06/16 07:28:25;;;;;;;11.38;3.60;;;25.10;99.90;;;;;;5074127;28;20052;-80
2022/06/16 07:30:52;;;;;;;11.18;3.40;;;25.20;99.90;;;;;;5074595;28;20051;-81
2022/06/16 07:33:38;;;;;;;10.38;3.88;;;25.30;99.90;;;;;;5072863;28;20055;-81
2022/06/16 07:36:06;;;;;;;8.63;3.47;;;25.30;99.90;;;;;;5072641;28;20055;-80
2022/06/16 07:38:32;;;;;;;7.38;3.30;;;25.40;99.90;;;;;;5073940;28;20055;-80
2022/06/16 07:43:44;;;;;;;14.07;4.45;;;25.50;99.90;;;;;;5071866;28;20131;-77
2022/06/16 07:46:11;;;;;;;5.70;3.53;;;25.50;99.90;;;;;;5073525;28;20045;-79
2022/06/16 07:48:38;;;;;;;8.43;3.60;;;25.50;99.90;;;;;;5071302;28;20045;-79
2022/06/16 07:51:05;;;;;;;10.45;3.88;;;25.50;99.90;;;;;;5074842;28;20232;-80
2022/06/16 07:53:32;;;;;;;10.13;3.58;;;25.50;99.90;;;;;;5071336;28;20055;-79
2022/06/16 07:55:59;;;;;;;12.02;3.60;;;25.50;99.90;;;;;;5073399;28;20420;-78
2022/06/16 07:58:30;;;;;;;8.50;3.60;;;25.50;99.90;;;;;;5069871;28;20052;-78
2022/06/16 08:00:58;;;;;;;9.70;4.22;;;25.50;99.90;;;;;;5071228;28;20055;-79
2022/06/16 08:03:27;;;;;;;11.32;3.78;;;25.60;99.90;;;;;;5070841;28;20143;-78
2022/06/16 08:05:56;;;;;;;6.40;3.65;;;25.60;99.90;;;;;;5051884;28;20450;-80
2022/06/16 08:08:24;;;;;;;7.90;3.63;;;25.70;99.90;;;;;;5072147;28;20140;-78
2022/06/16 08:10:52;;;;;;;8.52;4.88;;;25.70;99.90;;;;;;5070272;28;20418;-79
2022/06/16 08:13:20;;;;;;;8.73;3.42;;;25.70;99.90;;;;;;5072079;28;20124;-78
2022/06/16 08:15:48;;;;;;;9.55;3.55;;;25.80;99.90;;;;;;5070356;28;20112;-79
2022/06/16 08:18:17;;;;;;;13.02;4.32;;;25.70;99.90;;;;;;5071096;28;20481;-78
2022/06/16 08:20:45;;;;;;;9.95;3.53;;;25.80;99.90;;;;;;5071729;28;20044;-79
2022/06/16 08:23:12;;;;;;;7.30;3.60;;;25.80;99.90;;;;;;5051544;28;20084;-78
2022/06/16 08:25:42;;;;;;;8.60;3.58;;;25.80;99.90;;;;;;5072584;28;20078;-78
2022/06/16 08:28:12;;;;;;;9.63;3.72;;;25.80;99.90;;;;;;5065062;28;20049;-77
2022/06/16 08:30:41;;;;;;;4.70;3.22;;;25.80;99.90;;;;;;5070471;28;20112;-78
2022/06/16 08:33:09;;;;;;;6.32;3.17;;;25.80;99.90;;;;;;5072643;28;20069;-78
2022/06/16 08:35:36;;;;;;;6.38;3.38;;;25.80;99.90;;;;;;5070890;28;20056;-79
2022/06/16 08:38:04;;;;;;;6.80;3.10;;;25.80;99.90;;;;;;5070231;28;20505;-78
2022/06/16 08:40:33;;;;;;;8.60;3.55;;;25.80;99.90;;;;;;5071423;28;20063;-81
2022/06/16 08:43:08;;;;;;;9.77;3.20;;;25.80;99.90;;;;;;5064725;28;20053;-79
2022/06/16 08:45:40;;;;;;;6.07;3.03;;;25.80;99.90;;;;;;5070217;28;20127;-79
2022/06/16 08:48:26;;;;;;;8.65;4.22;;;25.90;99.90;;;;;;5070956;28;20131;-78
2022/06/16 08:51:14;;;;;;;14.73;4.30;;;25.90;99.90;;;;;;5067844;28;20051;-79
2022/06/16 08:54:14;;;;;;;8.95;4.00;;;25.90;99.90;;;;;;5065991;28;20537;-79
2022/06/16 08:56:47;;;;;;;6.87;3.57;;;26.00;99.90;;;;;;5064975;28;20512;-80
2022/06/16 08:59:29;;;;;;;9.00;3.28;;;26.00;99.90;;;;;;5067261;28;20059;-78
2022/06/16 09:02:04;;;;;;;7.30;3.53;;;26.00;99.90;;;;;;5062442;28;20057;-78
2022/06/16 09:04:35;;;;;;;13.25;4.32;;;26.10;99.90;;;;;;5062969;28;20132;-78
2022/06/16 09:07:02;;;;;;;7.53;3.70;;;26.10;99.90;;;;;;5040068;28;20049;-78
2022/06/16 09:12:38;;;;;;;9.52;3.38;;;26.20;99.90;;;;;;5061915;28;20063;-80
2022/06/16 09:15:37;;;;;;;13.77;3.63;;;26.40;99.90;;;;;;5060754;28;20049;-77
2022/06/16 09:18:17;;;;;;;11.00;4.28;;;26.40;99.90;;;;;;5035650;28;20053;-80
2022/06/16 09:21:05;;;;;;;8.00;2.90;;;26.50;99.90;;;;;;5062058;28;20049;-79
2022/06/16 09:24:07;;;;;;;7.18;3.00;;;26.50;99.90;;;;;;5059786;28;20045;-78
2022/06/16 09:26:54;;;;;;;6.28;2.95;;;26.60;99.90;;;;;;5008448;28;20497;-77
2022/06/16 09:29:26;;;;;;;6.32;3.10;;;26.60;99.90;;;;;;5063837;28;20067;-82
2022/06/16 09:32:24;;;;;;;9.98;3.15;;;26.60;99.90;;;;;;5062822;28;20073;-80
2022/06/16 09:34:58;;;;;;;8.40;2.92;;;26.70;99.90;;;;;;5056000;28;20087;-78
2022/06/16 09:37:46;;;;;;;6.43;3.78;;;26.80;99.90;;;;;;5062753;28;20055;-78
2022/06/16 09:40:21;;;;;;;4.30;2.58;;;26.80;99.90;;;;;;5042681;28;20545;-81
2022/06/16 09:43:07;;;;;;;5.40;2.35;;;26.80;99.90;;;;;;5064394;28;20053;-80
2022/06/16 09:45:54;;;;;;;5.93;2.03;;;26.90;99.90;;;;;;5059892;28;20422;-78
2022/06/16 09:48:30;;;;;;;4.88;1.80;;;26.90;99.90;;;;;;5058685;28;20077;-78
2022/06/16 09:51:11;;;;;;;6.00;2.08;;;26.90;99.90;;;;;;5063322;28;20048;-78
2022/06/16 09:54:01;;;;;;;8.07;2.10;;;27.00;99.90;;;;;;5040598;28;20045;-80
2022/06/16 09:56:32;;;;;;;3.80;2.10;;;27.00;99.90;;;;;;5067936;28;20060;-80
2022/06/16 09:59:11;;;;;;;3.65;1.95;;;27.00;99.90;;;;;;5070139;28;20083;-79
2022/06/16 10:01:45;;;;;;;3.78;2.08;;;27.00;99.90;;;;;;5071283;28;20474;-80
2022/06/16 10:04:13;;;;;;;4.82;1.77;;;27.10;99.90;;;;;;5065067;28;20426;-79
2022/06/16 10:07:01;;;;;;;4.28;1.95;;;27.10;99.90;;;;;;5073280;28;20051;-79
2022/06/16 10:09:36;;;;;;;3.90;2.30;;;27.10;99.90;;;;;;5067724;28;20597;-80
2022/06/16 10:12:23;;;;;;;3.92;2.13;;;27.20;99.90;;;;;;5074723;28;20052;-79
2022/06/16 10:14:54;;;;;;;2.63;2.10;;;27.20;99.90;;;;;;5069680;28;20049;-79
2022/06/16 10:17:23;;;;;;;6.57;2.05;;;27.30;99.90;;;;;;5073265;28;20124;-79
2022/06/16 10:19:51;;;;;;;4.73;2.00;;;27.30;99.90;;;;;;5073524;28;20053;-80
2022/06/16 10:22:22;;;;;;;3.88;2.00;;;27.30;99.90;;;;;;5072807;28;20293;-80
2022/06/16 10:24:54;;;;;;;5.30;2.00;;;27.30;99.90;;;;;;5066644;28;20149;-79
2022/06/16 10:27:26;;;;;;;5.68;2.47;;;27.40;99.90;;;;;;5072097;28;20415;-80
2022/06/16 10:29:58;;;;;;;7.15;2.10;;;27.40;99.90;;;;;;5074023;28;20048;-80
2022/06/16 10:32:45;;;;;;;3.53;2.15;;;27.50;99.90;;;;;;5073659;28;20104;-80
2022/06/16 10:35:18;;;;;;;3.08;2.22;;;27.50;99.90;;;;;;5068443;28;20057;-82
2022/06/16 10:37:48;;;;;;;5.25;2.05;;;27.50;99.90;;;;;;5071636;28;20049;-80
2022/06/16 10:40:37;;;;;;;4.45;2.10;;;27.50;99.90;;;;;;5069567;28;20048;-82
2022/06/16 10:43:25;;;;;;;5.55;2.33;;;27.50;99.90;;;;;;5069151;28;20056;-79
2022/06/16 10:46:08;;;;;;;12.35;4.07;;;27.60;99.90;;;;;;5069028;28;20048;-81
2022/06/16 10:48:37;;;;;;;7.30;2.92;;;27.60;99.90;;;;;;5074675;28;20051;-81
2022/06/16 10:51:16;;;;;;;6.10;3.10;;;27.70;99.90;;;;;;5075090;28;20045;-80
2022/06/16 10:53:47;;;;;;;9.13;3.88;;;27.70;99.90;;;;;;5069630;28;20051;-81
2022/06/16 10:56:20;;;;;;;6.28;2.38;;;27.80;99.90;;;;;;5075005;28;20054;-82
2022/06/16 10:59:26;;;;;;;4.60;2.10;;;27.80;99.90;;;;;;5075871;28;20063;-82
2022/06/16 11:02:13;;;;;;;7.03;2.13;;;27.80;99.90;;;;;;5069029;28;20147;-81
2022/06/16 11:04:43;;;;;;;5.20;2.05;;;27.90;99.90;;;;;;5077414;28;20084;-80
2022/06/16 11:07:20;;;;;;;4.15;2.40;;;28.00;99.90;;;;;;5071445;28;20056;-81
2022/06/16 11:09:47;;;;;;;3.55;2.30;;;28.10;99.90;;;;;;5073983;28;20512;-80
2022/06/16 11:12:19;;;;;;;9.30;2.58;;;28.20;99.90;;;;;;5074779;28;20047;-80
2022/06/16 11:14:59;;;;;;;4.72;2.00;;;28.30;99.90;;;;;;5072006;28;20051;-81
2022/06/16 11:17:28;;;;;;;;;;;28.30;99.90;;;;;;5073855;28;20044;-81
2022/06/16 11:20:21;;;;;;;2.22;1.92;;;28.30;99.90;;;;;;5072378;28;19960;-81
2022/06/16 11:22:50;;;;;;;4.28;2.17;;;28.30;99.90;;;;;;5073560;28;20532;-82
2022/06/16 11:25:31;;;;;;;5.18;2.20;;;28.40;99.90;;;;;;5068183;28;20088;-80
2022/06/16 11:28:07;;;;;;;5.88;2.45;;;28.40;99.90;;;;;;5074395;28;20040;-81
2022/06/16 11:30:40;;;;;;;7.28;2.60;;;28.40;99.90;;;;;;5075103;28;20052;-81
2022/06/16 11:36:39;;;;;;;6.63;2.03;;;28.60;99.90;;;;;;5073504;28;20135;-81
2022/06/16 11:39:13;;;;;;;4.15;1.95;;;28.50;99.90;;;;;;5071864;28;20136;-82
2022/06/16 11:41:46;;;;;;;2.63;2.15;;;28.50;99.90;;;;;;5072854;28;20064;-82
2022/06/16 11:44:53;;;;;;;3.28;1.95;;;28.50;99.90;;;;;;5074790;28;20091;-82
2022/06/16 11:47:42;;;;;;;3.70;2.35;;;28.50;99.90;;;;;;5074038;28;20090;-82
2022/06/16 11:50:33;;;;;;;6.03;2.40;;;28.60;99.90;;;;;;5067460;28;20072;-81
2022/06/16 11:53:23;;;;;;;6.80;2.20;;;28.60;99.90;;;;;;5070888;28;20041;-77
2022/06/16 11:55:54;;;;;;;4.68;2.10;;;28.80;99.90;;;;;;5064056;28;20049;-81
2022/06/16 11:58:43;;;;;;;4.40;2.10;;;28.90;99.90;;;;;;5073363;28;20067;-80
2022/06/16 12:01:35;;;;;;;8.30;3.38;;;28.90;99.90;;;;;;5071367;28;20044;-80
2022/06/16 12:04:44;;;;;;;6.38;2.30;;;29.00;99.90;;;;;;5070720;28;20055;-80
2022/06/16 12:07:30;;;;;;;4.63;2.22;;;29.10;99.90;;;;;;5027316;28;20045;-81
2022/06/16 12:10:16;;;;;;;8.98;2.47;;;29.20;99.90;;;;;;5071117;28;20405;-80
2022/06/16 12:13:09;;;;;;;4.55;2.17;;;29.30;99.90;;;;;;5071869;28;20057;-81
2022/06/16 12:15:52;;;;;;;7.20;2.78;;;29.40;99.90;;;;;;5016856;28;20058;-80
2022/06/16 12:18:43;;;;;;;3.30;2.28;;;29.50;99.90;;;;;;5067004;28;20091;-82
2022/06/16 12:21:29;;;;;;;7.68;2.40;;;29.60;99.90;;;;;;5068819;28;20056;-79
2022/06/16 12:24:09;;;;;;;2.47;1.98;;;29.70;99.90;;;;;;5069545;28;20045;-81
2022/06/16 12:26:46;;;;;;;3.90;2.38;;;30.00;99.90;;;;;;5053094;28;20118;-81
2022/06/16 12:29:23;;;;;;;4.75;2.40;;;30.00;99.90;;;;;;5068371;28;20124;-81
2022/06/16 12:32:25;;;;;;;4.00;2.20;;;30.00;99.90;;;;;;5071968;28;20045;-82
2022/06/16 12:35:15;;;;;;;6.22;2.42;;;30.10;99.90;;;;;;5072561;28;20045;-80
2022/06/16 12:37:45;;;;;;;;;;;30.20;99.90;;;;;;5068614;28;20084;-78
2022/06/16 12:40:38;;;;;;;5.78;2.35;;;30.30;99.90;;;;;;5066304;28;20393;-81
2022/06/16 12:43:12;;;;;;;7.88;2.60;;;30.40;99.90;;;;;;5059751;28;20052;-82
2022/06/16 12:45:43;;;;;;;7.32;2.20;;;30.30;99.90;;;;;;5066670;28;20053;-81
2022/06/16 12:48:22;;;;;;;10.23;2.30;;;30.30;99.90;;;;;;5070251;28;20048;-79
2022/06/16 12:50:55;;;;;;;4.85;2.15;;;30.30;99.90;;;;;;5073721;28;20514;-80
2022/06/16 12:53:36;;;;;;;6.25;2.42;;;30.30;99.90;;;;;;5064356;28;20049;-80
2022/06/16 12:56:08;;;;;;;5.75;2.47;;;30.30;99.90;;;;;;5070583;28;20128;-81
2022/06/16 12:58:51;;;;;;;3.22;2.10;;;30.20;99.90;;;;;;5063653;28;20413;-82
2022/06/16 13:01:18;;;;;;;6.13;2.60;;;30.20;99.90;;;;;;5073764;28;20048;-81
2022/06/16 13:04:04;;;;;;;6.63;2.40;;;30.10;99.90;;;;;;5071090;28;20049;-82
2022/06/16 13:06:32;;;;;;;5.55;2.17;;;29.90;99.90;;;;;;5072534;28;20045;-80
2022/06/16 13:09:03;;;;;;;7.63;2.70;;;29.90;99.90;;;;;;5074691;28;20052;-81
2022/06/16 13:11:35;;;;;;;6.20;2.53;;;29.80;99.90;;;;;;5075483;28;20048;-81
2022/06/16 13:14:11;;;;;;;6.25;2.42;;;29.70;99.90;;;;;;5072662;28;20049;-82
2022/06/16 13:16:41;;;;;;;4.75;2.20;;;29.70;99.90;;;;;;5069976;28;20062;-81
2022/06/16 13:19:09;;;;;;;;;;;29.70;99.90;;;;;;5064799;28;20063;-81
2022/06/16 13:21:40;;;;;;;4.07;2.10;;;29.70;99.90;;;;;;5060334;28;19927;-80
2022/06/16 13:24:26;;;;;;;4.35;2.35;;;29.70;99.90;;;;;;5068848;28;20450;-81
2022/06/16 13:27:06;;;;;;;8.77;2.92;;;29.80;99.90;;;;;;5048703;28;20056;-79
2022/06/16 13:29:42;;;;;;;5.72;2.33;;;29.90;99.90;;;;;;5065866;28;20055;-80
2022/06/16 13:32:36;;;;;;;3.88;2.05;;;30.00;99.90;;;;;;5069779;28;20108;-79
2022/06/16 13:35:23;;;;;;;3.22;2.28;;;30.10;99.90;;;;;;5062160;28;20127;-78
2022/06/16 13:38:10;;;;;;;10.82;2.60;;;30.10;99.90;;;;;;5036064;28;20095;-81
2022/06/16 13:40:38;;;;;;;4.22;2.17;;;30.20;99.90;;;;;;5062514;28;20062;-81
2022/06/16 13:43:08;;;;;;;6.07;2.35;;;30.30;99.90;;;;;;5077034;28;20053;-81
2022/06/16 13:45:35;;;;;;;5.35;1.92;;;30.30;99.90;;;;;;5074733;28;20109;-80
2022/06/16 13:48:16;;;;;;;3.20;2.30;;;30.30;99.90;;;;;;5070912;28;20056;-79